createdAt,value
2022-08-22T00:00:15.788Z,100254.63
2022-08-22T00:02:49.633Z,100235.53
2022-08-22T00:03:00.234Z,100209.28
2022-08-22T00:03:09.240Z,100148.97
2022-08-22T00:03:15.268Z,100269.94
2022-08-22T00:06:12.593Z,100254.03
2022-08-22T00:08:53.873Z,100254.75
2022-08-22T00:11:22.772Z,100256.63
2022-08-22T00:14:01.859Z,100249.66
2022-08-22T00:17:01.565Z,100248.06
2022-08-22T00:19:46.895Z,100247.63
2022-08-22T00:22:30.842Z,100248.91
2022-08-22T00:25:25.599Z,100246.22
2022-08-22T00:28:00.762Z,100248.50
2022-08-22T00:30:31.584Z,100243.66
2022-08-22T00:33:05.502Z,100240.66
2022-08-22T00:35:44.510Z,100242.66
2022-08-22T00:38:20.923Z,100249.22
2022-08-22T00:41:14.561Z,100250.34
2022-08-22T00:44:00.973Z,100245.22
2022-08-22T00:46:44.412Z,100250.50
2022-08-22T00:49:41.072Z,100249.94
2022-08-22T00:52:22.723Z,100243.53
2022-08-22T00:55:12.263Z,100240.69
2022-08-22T00:57:56.001Z,100240.34
2022-08-22T01:00:27.799Z,100234.09
2022-08-22T01:02:56.262Z,100234.34
2022-08-22T01:05:44.073Z,100233.25
2022-08-22T01:08:30.362Z,100227.00
2022-08-22T01:11:20.182Z,100225.59
2022-08-22T01:14:00.572Z,100225.47
2022-08-22T01:16:56.342Z,100219.59
2022-08-22T01:19:43.682Z,100221.91
2022-08-22T01:22:30.573Z,100211.66
2022-08-22T01:25:26.071Z,100216.78
2022-08-22T01:28:13.580Z,100216.34
2022-08-22T01:31:03.773Z,100213.38
2022-08-22T01:33:53.706Z,100217.22
2022-08-22T01:36:55.377Z,100207.69
2022-08-22T01:39:50.820Z,100207.41
2022-08-22T01:42:42.863Z,100203.72
2022-08-22T01:45:29.642Z,100203.03
2022-08-22T01:48:23.225Z,100202.03
2022-08-22T01:50:56.185Z,100208.72
2022-08-22T01:53:31.473Z,100206.78
2022-08-22T01:56:15.583Z,100203.41
2022-08-22T01:58:56.172Z,100198.41
2022-08-22T02:01:48.973Z,100196.00
2022-08-22T02:04:41.092Z,100193.72
2022-08-22T02:07:18.872Z,100201.25
2022-08-22T02:10:01.083Z,100201.38
2022-08-22T02:12:45.461Z,100202.50
2022-08-22T02:15:39.342Z,100193.72
2022-08-22T02:18:07.542Z,100194.91
2022-08-22T02:20:47.982Z,100200.44
2022-08-22T02:23:16.222Z,100192.56
2022-08-22T02:25:56.477Z,100188.03
2022-08-22T02:28:57.049Z,100187.63
2022-08-22T02:31:29.101Z,100188.91
2022-08-22T02:34:00.011Z,100178.28
2022-08-22T02:37:09.561Z,100172.38
2022-08-22T02:40:06.785Z,100180.94
2022-08-22T02:42:51.471Z,100179.81
2022-08-22T02:45:39.272Z,100178.66
2022-08-22T02:48:26.325Z,100175.84
2022-08-22T02:51:16.771Z,100177.81
2022-08-22T02:54:36.121Z,100175.13
2022-08-22T02:57:14.489Z,100178.66
2022-08-22T03:00:03.161Z,100177.28
2022-08-22T03:02:38.875Z,100187.31
2022-08-22T03:05:28.212Z,100180.78
2022-08-22T03:08:05.381Z,100183.09
2022-08-22T03:10:38.651Z,100177.97
2022-08-22T03:13:12.821Z,100185.78
2022-08-22T03:15:58.054Z,100182.75
2022-08-22T03:18:41.569Z,100186.28
2022-08-22T03:21:34.841Z,100191.59
2022-08-22T03:24:20.931Z,100187.19
2022-08-22T03:27:41.681Z,100182.16
2022-08-22T03:30:27.833Z,100178.91
2022-08-22T03:33:15.411Z,100175.25
2022-08-22T03:35:46.770Z,100179.84
2022-08-22T03:38:20.954Z,100183.28
2022-08-22T03:41:19.342Z,100174.53
2022-08-22T03:43:47.770Z,100179.91
2022-08-22T03:46:25.518Z,100178.22
2022-08-22T03:49:02.873Z,100178.19
2022-08-22T03:51:55.083Z,100178.44
2022-08-22T03:55:14.850Z,100175.66
2022-08-22T03:57:46.043Z,100184.66
2022-08-22T04:00:34.657Z,100183.28
2022-08-22T04:03:41.792Z,100182.38
2022-08-22T04:06:12.811Z,100192.22
2022-08-22T04:09:18.732Z,100190.78
2022-08-22T04:12:39.755Z,100192.31
2022-08-22T04:15:31.562Z,100189.19
2022-08-22T04:18:18.184Z,100191.22
2022-08-22T04:20:58.984Z,100189.13
2022-08-22T04:23:56.495Z,100188.94
2022-08-22T04:26:37.073Z,100183.75
2022-08-22T04:29:22.146Z,100184.44
2022-08-22T04:31:57.764Z,100189.31
2022-08-22T04:34:35.153Z,100185.56
2022-08-22T04:37:20.897Z,100183.56
2022-08-22T04:40:24.221Z,100187.53
2022-08-22T04:42:59.817Z,100190.34
2022-08-22T04:45:52.885Z,100196.41
2022-08-22T04:48:41.887Z,100196.09
2022-08-22T04:51:17.984Z,100195.00
2022-08-22T04:53:49.004Z,100192.53
2022-08-22T04:56:42.143Z,100200.28
2022-08-22T04:59:17.344Z,100205.97
2022-08-22T05:01:57.938Z,100196.69
2022-08-22T05:04:32.887Z,100202.38
2022-08-22T05:07:24.805Z,100201.00
2022-08-22T05:10:26.523Z,100207.63
2022-08-22T05:13:00.874Z,100213.06
2022-08-22T05:15:46.494Z,100207.00
2022-08-22T05:18:30.146Z,100207.75
2022-08-22T05:21:03.993Z,100209.69
2022-08-22T05:23:40.324Z,100204.66
2022-08-22T05:26:09.735Z,100208.91
2022-08-22T05:29:04.312Z,100211.63
2022-08-22T05:31:39.787Z,100212.44
2022-08-22T05:34:16.055Z,100221.81
2022-08-22T05:36:49.215Z,100217.97
2022-08-22T05:39:22.134Z,100213.75
2022-08-22T05:42:01.676Z,100207.31
2022-08-22T05:44:37.794Z,100217.09
2022-08-22T05:47:42.504Z,100217.84
2022-08-22T05:50:27.540Z,100219.56
2022-08-22T05:53:10.940Z,100212.75
2022-08-22T05:55:59.792Z,100219.94
2022-08-22T05:58:41.804Z,100219.63
2022-08-22T06:01:35.834Z,100222.94
2022-08-22T06:04:22.070Z,100219.22
2022-08-22T06:06:59.265Z,100222.03
2022-08-22T06:09:35.309Z,100226.31
2022-08-22T06:12:18.123Z,100227.88
2022-08-22T06:15:11.888Z,100225.47
2022-08-22T06:17:50.529Z,100225.03
2022-08-22T06:20:33.780Z,100233.31
2022-08-22T06:23:04.348Z,100230.94
2022-08-22T06:25:36.280Z,100234.38
2022-08-22T06:28:09.123Z,100239.38
2022-08-22T06:30:39.806Z,100233.06
2022-08-22T06:33:12.508Z,100234.06
2022-08-22T06:36:08.438Z,100232.47
2022-08-22T06:39:00.104Z,100233.69
2022-08-22T06:41:31.047Z,100235.44
2022-08-22T06:44:00.908Z,100239.19
2022-08-22T06:46:30.777Z,100238.38
2022-08-22T06:49:00.950Z,100243.00
2022-08-22T06:51:30.589Z,100244.50
2022-08-22T06:54:02.688Z,100243.78
2022-08-22T06:56:39.498Z,100244.50
2022-08-22T06:59:13.099Z,100241.16
2022-08-22T07:01:56.516Z,100241.91
2022-08-22T07:04:26.908Z,100239.50
2022-08-22T07:06:58.519Z,100241.47
2022-08-22T07:09:36.229Z,100240.03
2022-08-22T07:12:16.969Z,100230.59
2022-08-22T07:14:49.949Z,100238.41
2022-08-22T07:17:25.218Z,100236.72
2022-08-22T07:20:09.248Z,100247.94
